sensor_id;sensor_type;location;lat;lon;timestamp;P1;durP1;ratioP1;P2;durP2;ratioP2
11300;SDS011;5706;50.650;13.380;2022-10-16T15:43:29;3.25;;;2.03;;
11300;SDS011;5706;50.650;13.380;2022-10-16T15:45:59;3.50;;;2.72;;
11300;SDS011;5706;50.650;13.380;2022-10-16T15:48:30;5.65;;;3.65;;
11300;SDS011;5706;50.650;13.380;2022-10-16T15:50:59;3.88;;;3.45;;
11300;SDS011;5706;50.650;13.380;2022-10-16T15:53:31;11.13;;;9.65;;
11300;SDS011;5706;50.650;13.380;2022-10-16T15:56:02;7.00;;;3.90;;
11300;SDS011;5706;50.650;13.380;2022-10-16T15:58:30;3.63;;;3.20;;
11300;SDS011;5706;50.650;13.380;2022-10-16T16:00:58;3.75;;;1.98;;
11300;SDS011;5706;50.650;13.380;2022-10-16T16:03:29;2.83;;;2.35;;
11300;SDS011;5706;50.650;13.380;2022-10-16T16:08:58;4.20;;;2.30;;
11300;SDS011;5706;50.650;13.380;2022-10-16T16:11:32;3.38;;;2.13;;
11300;SDS011;5706;50.650;13.380;2022-10-16T16:14:03;3.22;;;2.10;;
11300;SDS011;5706;50.650;13.380;2022-10-16T16:16:31;3.72;;;2.25;;
11300;SDS011;5706;50.650;13.380;2022-10-16T16:19:10;5.70;;;4.00;;
11300;SDS011;5706;50.650;13.380;2022-10-16T16:21:38;6.15;;;3.00;;
11300;SDS011;5706;50.650;13.380;2022-10-16T16:24:06;3.38;;;2.58;;
11300;SDS011;5706;50.650;13.380;2022-10-16T16:26:35;2.30;;;2.10;;
11300;SDS011;5706;50.650;13.380;2022-10-16T16:29:08;6.30;;;2.92;;
11300;SDS011;5706;50.650;13.380;2022-10-16T16:31:39;3.80;;;2.30;;
11300;SDS011;5706;50.650;13.380;2022-10-16T16:34:07;3.23;;;2.00;;
11300;SDS011;5706;50.650;13.380;2022-10-16T16:36:35;4.40;;;2.50;;
11300;SDS011;5706;50.650;13.380;2022-10-16T16:39:05;3.07;;;2.20;;
11300;SDS011;5706;50.650;13.380;2022-10-16T16:41:46;2.67;;;2.47;;
11300;SDS011;5706;50.650;13.380;2022-10-16T16:44:17;3.53;;;2.37;;
11300;SDS011;5706;50.650;13.380;2022-10-16T16:46:56;3.83;;;2.40;;
11300;SDS011;5706;50.650;13.380;2022-10-16T16:49:44;5.90;;;2.90;;
11300;SDS011;5706;50.650;13.380;2022-10-16T16:52:24;4.07;;;2.27;;
11300;SDS011;5706;50.650;13.380;2022-10-16T16:55:01;6.33;;;2.20;;
11300;SDS011;5706;50.650;13.380;2022-10-16T16:57:31;3.37;;;2.60;;
11300;SDS011;5706;50.650;13.380;2022-10-16T16:59:59;4.37;;;2.67;;
11300;SDS011;5706;50.650;13.380;2022-10-16T17:02:30;7.10;;;4.63;;
11300;SDS011;5706;50.650;13.380;2022-10-16T17:05:37;5.00;;;4.57;;
11300;SDS011;5706;50.650;13.380;2022-10-16T17:07:47;9.43;;;6.50;;
11300;SDS011;5706;50.650;13.380;2022-10-16T17:10:14;5.90;;;4.53;;
11300;SDS011;5706;50.650;13.380;2022-10-16T17:12:43;5.77;;;4.30;;
11300;SDS011;5706;50.650;13.380;2022-10-16T17:15:11;6.33;;;5.27;;
11300;SDS011;5706;50.650;13.380;2022-10-16T17:17:39;8.13;;;5.53;;
11300;SDS011;5706;50.650;13.380;2022-10-16T17:20:07;10.67;;;7.13;;
11300;SDS011;5706;50.650;13.380;2022-10-16T17:22:35;7.77;;;6.77;;
11300;SDS011;5706;50.650;13.380;2022-10-16T17:25:03;7.80;;;6.17;;
11300;SDS011;5706;50.650;13.380;2022-10-16T17:27:32;7.77;;;6.50;;
11300;SDS011;5706;50.650;13.380;2022-10-16T17:30:02;7.57;;;6.77;;
11300;SDS011;5706;50.650;13.380;2022-10-16T17:32:31;8.97;;;7.30;;
11300;SDS011;5706;50.650;13.380;2022-10-16T17:34:59;14.37;;;10.00;;
11300;SDS011;5706;50.650;13.380;2022-10-16T17:37:28;16.97;;;12.80;;
11300;SDS011;5706;50.650;13.380;2022-10-16T17:39:55;15.67;;;10.63;;
11300;SDS011;5706;50.650;13.380;2022-10-16T17:42:23;12.30;;;8.03;;
11300;SDS011;5706;50.650;13.380;2022-10-16T17:44:50;9.70;;;6.60;;
11300;SDS011;5706;50.650;13.380;2022-10-16T17:47:19;12.47;;;9.20;;
11300;SDS011;5706;50.650;13.380;2022-10-16T17:49:47;12.10;;;8.77;;
11300;SDS011;5706;50.650;13.380;2022-10-16T17:52:15;12.67;;;11.27;;
11300;SDS011;5706;50.650;13.380;2022-10-16T17:54:42;19.03;;;11.83;;
11300;SDS011;5706;50.650;13.380;2022-10-16T17:57:10;20.17;;;12.40;;
11300;SDS011;5706;50.650;13.380;2022-10-16T17:59:38;21.60;;;12.57;;
11300;SDS011;5706;50.650;13.380;2022-10-16T18:02:05;15.33;;;7.13;;
11300;SDS011;5706;50.650;13.380;2022-10-16T18:04:35;15.93;;;10.60;;
11300;SDS011;5706;50.650;13.380;2022-10-16T18:07:03;14.33;;;9.23;;
11300;SDS011;5706;50.650;13.380;2022-10-16T18:09:31;12.67;;;9.37;;
11300;SDS011;5706;50.650;13.380;2022-10-16T18:11:59;15.17;;;10.27;;
11300;SDS011;5706;50.650;13.380;2022-10-16T18:14:27;6.87;;;4.57;;
11300;SDS011;5706;50.650;13.380;2022-10-16T18:16:57;10.77;;;7.97;;
11300;SDS011;5706;50.650;13.380;2022-10-16T18:19:25;8.77;;;4.93;;
11300;SDS011;5706;50.650;13.380;2022-10-16T18:21:54;12.37;;;7.10;;
11300;SDS011;5706;50.650;13.380;2022-10-16T18:24:22;10.30;;;6.77;;
11300;SDS011;5706;50.650;13.380;2022-10-16T18:26:51;10.37;;;6.40;;
11300;SDS011;5706;50.650;13.380;2022-10-16T18:29:21;8.90;;;7.70;;
11300;SDS011;5706;50.650;13.380;2022-10-16T18:31:51;9.03;;;6.73;;
11300;SDS011;5706;50.650;13.380;2022-10-16T18:34:20;8.17;;;6.80;;
11300;SDS011;5706;50.650;13.380;2022-10-16T18:36:50;12.87;;;7.90;;
11300;SDS011;5706;50.650;13.380;2022-10-16T18:39:21;9.90;;;6.83;;
11300;SDS011;5706;50.650;13.380;2022-10-16T18:41:49;14.30;;;9.03;;
11300;SDS011;5706;50.650;13.380;2022-10-16T18:44:19;11.10;;;8.07;;
11300;SDS011;5706;50.650;13.380;2022-10-16T18:46:46;8.93;;;6.43;;
11300;SDS011;5706;50.650;13.380;2022-10-16T18:49:16;9.37;;;6.80;;
11300;SDS011;5706;50.650;13.380;2022-10-16T18:51:44;26.33;;;18.60;;
11300;SDS011;5706;50.650;13.380;2022-10-16T18:54:14;21.60;;;15.27;;
11300;SDS011;5706;50.650;13.380;2022-10-16T18:56:41;13.87;;;10.83;;
11300;SDS011;5706;50.650;13.380;2022-10-16T18:59:09;13.33;;;10.07;;
11300;SDS011;5706;50.650;13.380;2022-10-16T19:01:36;10.23;;;8.00;;
11300;SDS011;5706;50.650;13.380;2022-10-16T19:04:05;11.70;;;7.53;;
11300;SDS011;5706;50.650;13.380;2022-10-16T19:06:35;9.37;;;7.40;;
11300;SDS011;5706;50.650;13.380;2022-10-16T19:09:06;11.30;;;8.53;;
11300;SDS011;5706;50.650;13.380;2022-10-16T19:11:35;13.57;;;8.43;;
11300;SDS011;5706;50.650;13.380;2022-10-16T19:14:03;15.07;;;8.30;;
11300;SDS011;5706;50.650;13.380;2022-10-16T19:16:31;12.17;;;9.13;;
11300;SDS011;5706;50.650;13.380;2022-10-16T19:19:02;10.77;;;8.57;;
11300;SDS011;5706;50.650;13.380;2022-10-16T19:21:33;6.23;;;5.20;;
11300;SDS011;5706;50.650;13.380;2022-10-16T19:24:04;6.03;;;5.43;;
11300;SDS011;5706;50.650;13.380;2022-10-16T19:26:35;6.20;;;4.73;;
11300;SDS011;5706;50.650;13.380;2022-10-16T19:29:03;6.23;;;5.47;;
11300;SDS011;5706;50.650;13.380;2022-10-16T19:31:32;7.93;;;5.50;;
11300;SDS011;5706;50.650;13.380;2022-10-16T19:34:00;6.40;;;4.73;;
11300;SDS011;5706;50.650;13.380;2022-10-16T19:36:30;6.70;;;4.77;;
11300;SDS011;5706;50.650;13.380;2022-10-16T19:39:02;6.17;;;4.53;;
11300;SDS011;5706;50.650;13.380;2022-10-16T19:41:32;8.37;;;4.87;;
11300;SDS011;5706;50.650;13.380;2022-10-16T19:44:03;4.30;;;3.90;;
11300;SDS011;5706;50.650;13.380;2022-10-16T19:46:34;4.43;;;4.03;;
11300;SDS011;5706;50.650;13.380;2022-10-16T19:49:03;4.43;;;3.80;;
11300;SDS011;5706;50.650;13.380;2022-10-16T19:51:32;4.53;;;3.90;;
11300;SDS011;5706;50.650;13.380;2022-10-16T19:54:01;6.67;;;4.50;;
11300;SDS011;5706;50.650;13.380;2022-10-16T19:56:33;5.40;;;4.17;;
11300;SDS011;5706;50.650;13.380;2022-10-16T19:59:03;6.97;;;4.43;;
11300;SDS011;5706;50.650;13.380;2022-10-16T20:01:33;6.60;;;4.00;;
11300;SDS011;5706;50.650;13.380;2022-10-16T20:04:01;5.43;;;3.87;;
11300;SDS011;5706;50.650;13.380;2022-10-16T20:06:29;5.90;;;4.10;;
11300;SDS011;5706;50.650;13.380;2022-10-16T20:08:57;5.80;;;3.80;;
11300;SDS011;5706;50.650;13.380;2022-10-16T20:11:26;4.20;;;3.70;;
11300;SDS011;5706;50.650;13.380;2022-10-16T20:13:57;7.63;;;4.23;;
11300;SDS011;5706;50.650;13.380;2022-10-16T20:16:26;4.60;;;4.17;;
11300;SDS011;5706;50.650;13.380;2022-10-16T20:18:55;4.93;;;4.10;;
11300;SDS011;5706;50.650;13.380;2022-10-16T20:21:24;5.93;;;4.37;;
11300;SDS011;5706;50.650;13.380;2022-10-16T20:23:54;4.90;;;4.03;;
11300;SDS011;5706;50.650;13.380;2022-10-16T20:26:24;5.00;;;4.03;;
11300;SDS011;5706;50.650;13.380;2022-10-16T20:28:52;5.27;;;4.43;;
11300;SDS011;5706;50.650;13.380;2022-10-16T20:31:23;5.97;;;4.37;;
11300;SDS011;5706;50.650;13.380;2022-10-16T20:33:53;6.37;;;4.07;;
11300;SDS011;5706;50.650;13.380;2022-10-16T20:36:24;3.97;;;3.37;;
11300;SDS011;5706;50.650;13.380;2022-10-16T20:38:55;5.60;;;4.30;;
11300;SDS011;5706;50.650;13.380;2022-10-16T20:41:23;5.87;;;4.00;;
11300;SDS011;5706;50.650;13.380;2022-10-16T20:43:51;5.07;;;4.07;;
11300;SDS011;5706;50.650;13.380;2022-10-16T20:46:20;5.70;;;3.97;;
11300;SDS011;5706;50.650;13.380;2022-10-16T20:48:52;5.00;;;4.47;;
11300;SDS011;5706;50.650;13.380;2022-10-16T20:51:22;5.07;;;3.87;;
11300;SDS011;5706;50.650;13.380;2022-10-16T20:53:53;5.93;;;4.57;;
11300;SDS011;5706;50.650;13.380;2022-10-16T20:56:23;5.70;;;3.70;;
11300;SDS011;5706;50.650;13.380;2022-10-16T20:58:54;6.33;;;4.00;;
11300;SDS011;5706;50.650;13.380;2022-10-16T21:01:24;7.03;;;3.60;;
11300;SDS011;5706;50.650;13.380;2022-10-16T21:03:55;4.83;;;4.37;;
11300;SDS011;5706;50.650;13.380;2022-10-16T21:06:26;4.90;;;3.97;;
11300;SDS011;5706;50.650;13.380;2022-10-16T21:08:54;5.97;;;4.00;;
11300;SDS011;5706;50.650;13.380;2022-10-16T21:11:24;5.03;;;3.90;;
11300;SDS011;5706;50.650;13.380;2022-10-16T21:13:54;4.73;;;4.10;;
11300;SDS011;5706;50.650;13.380;2022-10-16T21:16:25;3.90;;;3.60;;
11300;SDS011;5706;50.650;13.380;2022-10-16T21:18:59;8.80;;;5.00;;
11300;SDS011;5706;50.650;13.380;2022-10-16T21:21:29;6.77;;;5.03;;
11300;SDS011;5706;50.650;13.380;2022-10-16T21:24:00;4.10;;;3.70;;
11300;SDS011;5706;50.650;13.380;2022-10-16T21:26:29;5.60;;;3.97;;
11300;SDS011;5706;50.650;13.380;2022-10-16T21:28:57;5.63;;;4.50;;
11300;SDS011;5706;50.650;13.380;2022-10-16T21:31:31;4.63;;;4.10;;
11300;SDS011;5706;50.650;13.380;2022-10-16T21:33:59;5.93;;;4.30;;
11300;SDS011;5706;50.650;13.380;2022-10-16T21:36:29;9.13;;;4.80;;
11300;SDS011;5706;50.650;13.380;2022-10-16T21:39:00;5.17;;;4.40;;
11300;SDS011;5706;50.650;13.380;2022-10-16T21:41:29;4.60;;;4.10;;
11300;SDS011;5706;50.650;13.380;2022-10-16T21:43:57;4.47;;;3.80;;
11300;SDS011;5706;50.650;13.380;2022-10-16T21:46:26;6.93;;;3.90;;
11300;SDS011;5706;50.650;13.380;2022-10-16T21:48:57;5.60;;;4.57;;
11300;SDS011;5706;50.650;13.380;2022-10-16T21:51:29;8.93;;;4.23;;
11300;SDS011;5706;50.650;13.380;2022-10-16T21:54:00;7.27;;;4.30;;
11300;SDS011;5706;50.650;13.380;2022-10-16T21:56:30;10.63;;;4.00;;
11300;SDS011;5706;50.650;13.380;2022-10-16T21:58:57;4.80;;;4.20;;
11300;SDS011;5706;50.650;13.380;2022-10-16T22:01:25;6.60;;;4.50;;
11300;SDS011;5706;50.650;13.380;2022-10-16T22:03:55;8.47;;;4.30;;
11300;SDS011;5706;50.650;13.380;2022-10-16T22:06:25;8.37;;;4.87;;
11300;SDS011;5706;50.650;13.380;2022-10-16T22:08:55;5.60;;;4.53;;
11300;SDS011;5706;50.650;13.380;2022-10-16T22:11:25;9.67;;;4.10;;
11300;SDS011;5706;50.650;13.380;2022-10-16T22:14:00;5.03;;;3.90;;
11300;SDS011;5706;50.650;13.380;2022-10-16T22:16:29;6.17;;;4.47;;
11300;SDS011;5706;50.650;13.380;2022-10-16T22:18:58;12.50;;;4.23;;
11300;SDS011;5706;50.650;13.380;2022-10-16T22:21:28;5.43;;;3.73;;
11300;SDS011;5706;50.650;13.380;2022-10-16T22:23:57;8.67;;;4.07;;
11300;SDS011;5706;50.650;13.380;2022-10-16T22:26:25;4.17;;;3.77;;
11300;SDS011;5706;50.650;13.380;2022-10-16T22:28:53;5.30;;;4.03;;
11300;SDS011;5706;50.650;13.380;2022-10-16T22:31:21;6.83;;;3.90;;
11300;SDS011;5706;50.650;13.380;2022-10-16T22:33:52;4.20;;;3.50;;
11300;SDS011;5706;50.650;13.380;2022-10-16T22:36:22;10.80;;;4.63;;
11300;SDS011;5706;50.650;13.380;2022-10-16T22:38:50;4.00;;;3.60;;
11300;SDS011;5706;50.650;13.380;2022-10-16T22:41:19;5.80;;;3.60;;
11300;SDS011;5706;50.650;13.380;2022-10-16T22:43:48;6.63;;;3.97;;
11300;SDS011;5706;50.650;13.380;2022-10-16T22:46:17;5.60;;;3.50;;
11300;SDS011;5706;50.650;13.380;2022-10-16T22:48:47;4.40;;;3.90;;
11300;SDS011;5706;50.650;13.380;2022-10-16T22:51:15;7.53;;;4.03;;
11300;SDS011;5706;50.650;13.380;2022-10-16T22:53:45;7.23;;;4.00;;
11300;SDS011;5706;50.650;13.380;2022-10-16T22:56:15;3.93;;;3.60;;
11300;SDS011;5706;50.650;13.380;2022-10-16T22:58:44;5.87;;;3.90;;
11300;SDS011;5706;50.650;13.380;2022-10-16T23:01:13;5.90;;;4.10;;
11300;SDS011;5706;50.650;13.380;2022-10-16T23:03:43;4.50;;;4.03;;
11300;SDS011;5706;50.650;13.380;2022-10-16T23:06:11;6.77;;;4.13;;
11300;SDS011;5706;50.650;13.380;2022-10-16T23:08:38;6.27;;;4.50;;
11300;SDS011;5706;50.650;13.380;2022-10-16T23:11:10;5.80;;;3.77;;
11300;SDS011;5706;50.650;13.380;2022-10-16T23:13:39;5.17;;;3.27;;
11300;SDS011;5706;50.650;13.380;2022-10-16T23:16:09;4.13;;;3.30;;
11300;SDS011;5706;50.650;13.380;2022-10-16T23:18:39;4.40;;;3.50;;
11300;SDS011;5706;50.650;13.380;2022-10-16T23:21:09;7.23;;;3.60;;
11300;SDS011;5706;50.650;13.380;2022-10-16T23:23:40;6.13;;;3.53;;
11300;SDS011;5706;50.650;13.380;2022-10-16T23:26:10;4.63;;;2.90;;
11300;SDS011;5706;50.650;13.380;2022-10-16T23:28:40;7.60;;;3.43;;
11300;SDS011;5706;50.650;13.380;2022-10-16T23:31:09;6.50;;;3.80;;
11300;SDS011;5706;50.650;13.380;2022-10-16T23:33:39;4.50;;;3.67;;
11300;SDS011;5706;50.650;13.380;2022-10-16T23:36:07;6.50;;;3.60;;
11300;SDS011;5706;50.650;13.380;2022-10-16T23:38:37;4.83;;;3.50;;
11300;SDS011;5706;50.650;13.380;2022-10-16T23:41:05;3.87;;;3.50;;
11300;SDS011;5706;50.650;13.380;2022-10-16T23:43:34;7.30;;;3.63;;
11300;SDS011;5706;50.650;13.380;2022-10-16T23:46:02;6.80;;;3.70;;
11300;SDS011;5706;50.650;13.380;2022-10-16T23:48:31;3.30;;;3.00;;
11300;SDS011;5706;50.650;13.380;2022-10-16T23:50:59;4.80;;;3.30;;
11300;SDS011;5706;50.650;13.380;2022-10-16T23:53:27;7.53;;;3.43;;
11300;SDS011;5706;50.650;13.380;2022-10-16T23:55:54;3.33;;;3.00;;
11300;SDS011;5706;50.650;13.380;2022-10-16T23:58:22;4.70;;;3.70;;
